createdAt,value
2022-07-30T00:00:29.086Z,0.00
2022-07-30T00:01:29.155Z,0.00
2022-07-30T00:02:29.073Z,0.00
2022-07-30T00:03:29.079Z,0.00
2022-07-30T00:04:29.052Z,0.00
2022-07-30T00:05:29.035Z,0.00
2022-07-30T00:06:29.027Z,0.00
2022-07-30T00:07:29.013Z,0.00
2022-07-30T00:08:29.003Z,0.00
2022-07-30T00:09:28.999Z,0.00
2022-07-30T00:10:28.971Z,0.00
2022-07-30T00:11:28.962Z,0.00
2022-07-30T00:12:28.958Z,0.00
2022-07-30T00:13:28.937Z,0.00
2022-07-30T00:14:28.969Z,0.00
2022-07-30T00:15:28.917Z,0.00
2022-07-30T00:16:28.992Z,0.00
2022-07-30T00:17:28.893Z,0.00
2022-07-30T00:18:28.895Z,0.00
2022-07-30T00:19:28.894Z,0.00
2022-07-30T00:20:28.886Z,0.00
2022-07-30T00:21:36.015Z,0.00
2022-07-30T00:22:28.844Z,0.00
2022-07-30T00:23:28.829Z,0.00
2022-07-30T00:24:28.821Z,0.00
2022-07-30T00:25:28.819Z,0.00
2022-07-30T00:26:28.809Z,0.00
2022-07-30T00:27:28.786Z,0.00
2022-07-30T00:28:28.784Z,0.00
2022-07-30T00:29:28.768Z,0.00
2022-07-30T00:30:28.859Z,0.00
2022-07-30T00:31:28.763Z,0.00
2022-07-30T00:32:28.739Z,0.00
2022-07-30T00:33:28.737Z,0.00
2022-07-30T00:34:28.711Z,0.00
2022-07-30T00:35:28.700Z,0.00
2022-07-30T00:36:28.689Z,0.00
2022-07-30T00:37:28.687Z,0.00
2022-07-30T00:38:28.663Z,0.00
2022-07-30T00:39:28.656Z,0.00
2022-07-30T00:40:28.643Z,0.00
2022-07-30T00:41:28.632Z,0.00
2022-07-30T00:42:28.633Z,0.00
2022-07-30T00:43:28.611Z,0.00
2022-07-30T00:44:28.594Z,0.00
2022-07-30T00:45:28.696Z,0.00
2022-07-30T00:47:37.552Z,0.00
2022-07-30T00:48:38.573Z,0.00
2022-07-30T00:49:43.938Z,0.00
2022-07-30T00:50:38.503Z,0.00
2022-07-30T00:51:38.491Z,0.00
2022-07-30T00:52:38.487Z,0.00
2022-07-30T00:53:38.464Z,0.00
2022-07-30T00:54:38.464Z,0.00
2022-07-30T00:55:38.450Z,0.00
2022-07-30T00:56:38.439Z,0.00
2022-07-30T00:57:39.209Z,0.00
2022-07-30T00:58:38.426Z,0.00
2022-07-30T00:59:38.403Z,0.00
2022-07-30T01:00:38.399Z,0.00
2022-07-30T01:01:38.468Z,0.00
2022-07-30T01:02:38.571Z,0.00
2022-07-30T01:03:38.357Z,0.00
2022-07-30T01:04:38.356Z,0.00
2022-07-30T01:05:38.330Z,0.00
2022-07-30T01:06:38.326Z,0.00
2022-07-30T01:07:38.317Z,0.00
2022-07-30T01:08:38.314Z,0.00
2022-07-30T01:09:38.293Z,0.00
2022-07-30T01:10:38.282Z,0.00
2022-07-30T01:11:38.265Z,0.00
2022-07-30T01:12:38.267Z,0.00
2022-07-30T01:13:38.262Z,0.00
2022-07-30T01:14:38.245Z,0.00
2022-07-30T01:15:38.229Z,0.00
2022-07-30T01:16:38.319Z,0.00
2022-07-30T01:17:38.217Z,0.00
2022-07-30T01:18:38.191Z,0.00
2022-07-30T01:19:38.207Z,0.00
2022-07-30T01:20:38.170Z,0.00
2022-07-30T01:21:38.163Z,0.00
2022-07-30T01:22:38.151Z,0.00
2022-07-30T01:23:38.155Z,0.00
2022-07-30T01:24:38.135Z,0.00
2022-07-30T01:25:38.120Z,0.00
2022-07-30T01:26:38.110Z,0.00
2022-07-30T01:27:38.088Z,0.00
2022-07-30T01:28:38.080Z,0.00
2022-07-30T01:29:38.073Z,0.00
2022-07-30T01:30:38.088Z,0.00
2022-07-30T01:31:38.135Z,0.00
2022-07-30T01:32:38.037Z,0.00
2022-07-30T01:33:38.021Z,0.00
2022-07-30T01:34:38.026Z,0.00
2022-07-30T01:35:38.138Z,0.00
2022-07-30T01:36:37.996Z,0.00
2022-07-30T01:37:37.988Z,0.00
2022-07-30T01:38:37.973Z,0.00
2022-07-30T01:39:37.959Z,0.00
2022-07-30T01:40:37.968Z,0.00
2022-07-30T01:41:37.935Z,0.00
2022-07-30T01:42:37.923Z,0.00
2022-07-30T01:43:37.913Z,0.00
2022-07-30T01:44:37.902Z,0.00
2022-07-30T01:45:41.574Z,0.00
2022-07-30T01:46:37.885Z,0.00
2022-07-30T01:47:37.886Z,0.00
2022-07-30T01:48:37.869Z,0.00
2022-07-30T01:49:37.857Z,0.00
2022-07-30T01:50:37.833Z,0.00
2022-07-30T01:51:37.949Z,0.00
2022-07-30T01:52:37.835Z,0.00
2022-07-30T01:53:37.808Z,0.00
2022-07-30T01:54:37.791Z,0.00
2022-07-30T01:55:37.782Z,0.00
2022-07-30T01:56:37.767Z,0.00
2022-07-30T01:57:37.773Z,0.00
2022-07-30T01:58:37.749Z,0.00
2022-07-30T01:59:37.735Z,0.00
2022-07-30T02:00:37.800Z,0.00
2022-07-30T02:01:37.752Z,0.00
2022-07-30T02:02:37.717Z,0.00
2022-07-30T02:03:37.772Z,0.00
2022-07-30T02:04:37.677Z,0.00
2022-07-30T02:05:37.667Z,0.00
2022-07-30T02:06:37.657Z,0.00
2022-07-30T02:07:37.648Z,0.00
2022-07-30T02:08:37.645Z,0.00
2022-07-30T02:09:37.632Z,0.00
2022-07-30T02:10:37.634Z,0.00
2022-07-30T02:11:37.601Z,0.00
2022-07-30T02:12:37.624Z,0.00
2022-07-30T02:13:37.598Z,0.00
2022-07-30T02:14:37.565Z,0.00
2022-07-30T02:15:37.562Z,0.00
2022-07-30T02:16:37.569Z,0.00
2022-07-30T02:17:39.866Z,0.00
2022-07-30T02:18:39.630Z,0.00
2022-07-30T02:19:37.515Z,0.00
2022-07-30T02:20:38.374Z,0.00
2022-07-30T02:21:37.521Z,0.00
2022-07-30T02:22:37.493Z,0.00
2022-07-30T02:23:37.479Z,0.00
2022-07-30T02:24:37.461Z,0.00
2022-07-30T02:25:37.474Z,0.00
2022-07-30T02:26:37.437Z,0.00
2022-07-30T02:27:38.291Z,0.00
2022-07-30T02:28:37.415Z,0.00
2022-07-30T02:29:37.412Z,0.00
2022-07-30T02:30:37.414Z,0.00
2022-07-30T02:31:37.440Z,0.00
2022-07-30T02:32:37.390Z,0.00
2022-07-30T02:33:37.370Z,0.00
2022-07-30T02:34:37.350Z,0.00
2022-07-30T02:35:37.345Z,0.00
2022-07-30T02:36:37.321Z,0.00
2022-07-30T02:37:42.783Z,0.00
2022-07-30T02:38:37.303Z,0.00
2022-07-30T02:39:37.288Z,0.00
2022-07-30T02:40:37.291Z,0.00
2022-07-30T02:41:37.270Z,0.00
2022-07-30T02:42:37.273Z,0.00
2022-07-30T02:43:37.247Z,0.00
2022-07-30T02:44:37.239Z,0.00
2022-07-30T02:45:37.245Z,0.00
2022-07-30T02:46:37.250Z,0.00
2022-07-30T02:48:46.237Z,0.00
2022-07-30T02:49:47.148Z,0.00
2022-07-30T02:50:47.156Z,0.00
2022-07-30T02:51:47.132Z,0.00
2022-07-30T02:52:47.125Z,0.00
2022-07-30T02:53:47.106Z,0.00
2022-07-30T02:54:47.116Z,0.00
2022-07-30T02:55:47.123Z,0.00
2022-07-30T02:56:47.085Z,0.00
2022-07-30T02:57:47.067Z,0.00
2022-07-30T02:58:47.062Z,0.00
2022-07-30T02:59:47.054Z,0.00
2022-07-30T03:00:47.096Z,0.00
2022-07-30T03:01:47.042Z,0.00
2022-07-30T03:02:47.019Z,0.00
2022-07-30T03:03:47.000Z,0.00
2022-07-30T03:04:49.607Z,0.00
2022-07-30T03:05:46.989Z,0.00
2022-07-30T03:06:46.976Z,0.00
2022-07-30T03:07:46.953Z,0.00
2022-07-30T03:08:46.950Z,0.00
2022-07-30T03:09:51.944Z,0.00
2022-07-30T03:10:46.919Z,0.00
2022-07-30T03:11:46.928Z,0.00
2022-07-30T03:12:46.903Z,0.00
2022-07-30T03:13:46.899Z,4.00
2022-07-30T03:14:46.878Z,4.00
2022-07-30T03:15:46.942Z,4.00
2022-07-30T03:16:46.872Z,0.00
2022-07-30T03:17:46.854Z,4.00
2022-07-30T03:18:46.843Z,4.00
2022-07-30T03:19:46.839Z,4.00
2022-07-30T03:20:46.819Z,4.00
2022-07-30T03:21:46.844Z,8.00
2022-07-30T03:22:46.791Z,8.00
2022-07-30T03:23:46.790Z,4.00
2022-07-30T03:24:46.774Z,8.00
2022-07-30T03:25:46.773Z,8.00
2022-07-30T03:26:46.767Z,8.00
2022-07-30T03:27:46.731Z,16.00
2022-07-30T03:28:46.723Z,16.00
2022-07-30T03:29:46.717Z,16.00
2022-07-30T03:30:46.705Z,20.00
2022-07-30T03:31:46.819Z,24.00
2022-07-30T03:32:46.756Z,24.00
2022-07-30T03:33:46.693Z,28.00
2022-07-30T03:34:46.658Z,28.00
2022-07-30T03:35:46.657Z,36.00
2022-07-30T03:36:46.640Z,36.00
2022-07-30T03:37:46.632Z,44.00
2022-07-30T03:38:46.613Z,48.00
2022-07-30T03:39:46.599Z,52.00
2022-07-30T03:40:46.594Z,56.00
2022-07-30T03:41:46.583Z,60.00
2022-07-30T03:42:46.585Z,68.00
2022-07-30T03:43:46.556Z,72.00
2022-07-30T03:44:46.551Z,76.00
2022-07-30T03:45:46.546Z,84.00
2022-07-30T03:46:46.625Z,96.00
2022-07-30T03:47:46.526Z,100.00
2022-07-30T03:48:46.561Z,108.00
2022-07-30T03:49:46.497Z,112.00
2022-07-30T03:50:46.483Z,120.00
2022-07-30T03:51:46.473Z,132.00
2022-07-30T03:52:46.467Z,136.00
2022-07-30T03:53:46.458Z,144.00
2022-07-30T03:54:46.441Z,152.00
2022-07-30T03:55:46.441Z,164.00
2022-07-30T03:56:46.418Z,172.00
2022-07-30T03:57:46.400Z,176.00
2022-07-30T03:58:46.404Z,188.00
2022-07-30T03:59:46.381Z,196.00
2022-07-30T04:00:46.381Z,208.00
2022-07-30T04:01:46.498Z,216.00
2022-07-30T04:02:46.359Z,224.00
2022-07-30T04:03:46.409Z,240.00
2022-07-30T04:04:46.336Z,252.00
2022-07-30T04:05:46.336Z,260.00
2022-07-30T04:06:46.310Z,276.00
2022-07-30T04:07:46.300Z,288.00
2022-07-30T04:08:46.298Z,300.00
2022-07-30T04:09:46.271Z,312.00
2022-07-30T04:10:46.259Z,324.00
2022-07-30T04:11:46.249Z,336.00
2022-07-30T04:12:46.241Z,348.00
2022-07-30T04:13:46.237Z,360.00
2022-07-30T04:14:46.236Z,372.00
2022-07-30T04:16:15.846Z,380.00
2022-07-30T04:16:46.273Z,396.00
2022-07-30T04:17:46.182Z,404.00
2022-07-30T04:18:46.191Z,416.00
2022-07-30T04:19:46.178Z,432.00
2022-07-30T04:20:46.149Z,440.00
2022-07-30T04:21:46.147Z,448.00
2022-07-30T04:22:46.132Z,460.00
2022-07-30T04:24:03.119Z,468.00
2022-07-30T04:24:46.149Z,480.00
2022-07-30T04:25:46.116Z,496.00
2022-07-30T04:26:46.114Z,512.00
2022-07-30T04:28:02.853Z,536.00
2022-07-30T04:28:46.059Z,560.00
2022-07-30T04:29:46.065Z,584.00
2022-07-30T04:30:46.058Z,600.00
2022-07-30T04:31:46.168Z,620.00
2022-07-30T04:32:46.020Z,632.00
2022-07-30T04:33:46.011Z,640.00
2022-07-30T04:34:46.000Z,648.00
2022-07-30T04:35:51.036Z,652.00
2022-07-30T04:36:45.997Z,664.00
2022-07-30T04:37:46.008Z,676.00
2022-07-30T04:38:45.963Z,692.00
2022-07-30T04:39:45.941Z,704.00
2022-07-30T04:40:45.944Z,720.00
2022-07-30T04:41:48.655Z,728.00
2022-07-30T04:42:45.911Z,736.00
2022-07-30T04:43:45.894Z,748.00
2022-07-30T04:44:45.888Z,756.00
2022-07-30T04:45:45.880Z,768.00
2022-07-30T04:46:45.931Z,776.00
2022-07-30T04:47:45.870Z,784.00
2022-07-30T04:49:54.858Z,812.00
2022-07-30T04:50:55.828Z,824.00
2022-07-30T04:51:55.830Z,844.00
2022-07-30T04:52:55.831Z,868.00
2022-07-30T04:53:55.799Z,896.00
2022-07-30T04:54:55.774Z,920.00
2022-07-30T04:55:55.766Z,948.00
2022-07-30T04:56:55.752Z,972.00
2022-07-30T04:57:55.760Z,996.00
2022-07-30T04:58:55.739Z,1012.00
2022-07-30T04:59:55.719Z,1032.00
2022-07-30T05:00:55.706Z,1048.00
2022-07-30T05:01:55.743Z,1072.00
2022-07-30T05:02:55.715Z,1096.00
2022-07-30T05:03:55.670Z,1120.00
2022-07-30T05:04:55.741Z,1144.00
2022-07-30T05:05:57.573Z,1172.00
2022-07-30T05:06:55.648Z,1200.00
2022-07-30T05:07:55.650Z,1228.00
2022-07-30T05:08:55.630Z,1260.00
2022-07-30T05:09:55.610Z,1284.00
2022-07-30T05:10:55.597Z,1312.00
2022-07-30T05:11:55.615Z,1340.00
2022-07-30T05:12:55.609Z,1372.00
2022-07-30T05:13:55.576Z,1412.00
2022-07-30T05:14:55.572Z,1464.00
2022-07-30T05:15:55.579Z,1540.00
2022-07-30T05:16:55.539Z,1692.00
2022-07-30T05:17:55.521Z,1800.00
2022-07-30T05:18:55.522Z,1852.00
2022-07-30T05:19:55.505Z,1988.00
2022-07-30T05:20:55.480Z,2140.00
2022-07-30T05:21:55.481Z,2344.00
2022-07-30T05:22:55.484Z,2412.00
2022-07-30T05:23:55.453Z,2220.00
2022-07-30T05:24:55.457Z,2236.00
2022-07-30T05:25:55.433Z,2624.00
2022-07-30T05:26:55.448Z,2952.00
2022-07-30T05:27:55.406Z,3184.00
2022-07-30T05:28:56.738Z,3384.00
2022-07-30T05:29:55.592Z,3588.00
2022-07-30T05:30:55.444Z,3760.00
2022-07-30T05:31:55.362Z,3912.00
2022-07-30T05:32:56.296Z,4016.00
2022-07-30T05:33:55.339Z,4108.00
2022-07-30T05:34:55.340Z,4212.00
2022-07-30T05:35:55.335Z,4276.00
2022-07-30T05:36:55.310Z,4360.00
2022-07-30T05:37:55.314Z,4468.00
2022-07-30T05:38:55.304Z,4568.00
2022-07-30T05:39:58.820Z,4716.00
2022-07-30T05:40:55.299Z,4836.00
2022-07-30T05:41:55.253Z,4968.00
2022-07-30T05:42:55.239Z,5228.00
2022-07-30T05:43:55.659Z,5368.00
2022-07-30T05:44:55.223Z,5552.00
2022-07-30T05:45:55.247Z,5652.00
2022-07-30T05:46:55.200Z,5456.00
2022-07-30T05:47:55.211Z,4976.00
2022-07-30T05:48:55.275Z,4988.00
2022-07-30T05:49:55.200Z,5464.00
2022-07-30T05:50:55.175Z,5436.00
2022-07-30T05:51:55.174Z,5084.00
2022-07-30T05:52:55.134Z,5672.00
2022-07-30T05:53:55.129Z,6400.00
2022-07-30T05:54:55.114Z,6932.00
2022-07-30T05:55:55.098Z,7008.00
2022-07-30T05:56:55.100Z,6768.00
2022-07-30T05:57:55.081Z,6640.00
2022-07-30T05:58:55.078Z,6392.00
2022-07-30T05:59:55.063Z,5832.00
2022-07-30T06:00:55.063Z,6000.00
2022-07-30T06:01:55.106Z,6216.00
2022-07-30T06:02:55.028Z,5976.00
2022-07-30T06:03:55.015Z,5700.00
2022-07-30T06:04:55.106Z,6260.00
2022-07-30T06:05:54.993Z,7712.00
2022-07-30T06:06:55.012Z,6720.00
2022-07-30T06:07:54.974Z,6856.00
2022-07-30T06:08:54.968Z,6652.00
2022-07-30T06:09:54.982Z,7748.00
2022-07-30T06:10:54.939Z,8904.00
2022-07-30T06:11:54.949Z,9360.00
2022-07-30T06:12:54.927Z,9704.00
2022-07-30T06:13:54.908Z,9900.00
2022-07-30T06:14:54.896Z,9880.00
2022-07-30T06:15:54.957Z,9984.00
2022-07-30T06:16:54.883Z,10016.00
2022-07-30T06:17:58.344Z,10108.00
2022-07-30T06:18:54.942Z,10184.00
2022-07-30T06:19:54.842Z,10308.00
2022-07-30T06:20:54.837Z,10448.00
2022-07-30T06:22:05.651Z,10552.00
2022-07-30T06:22:54.832Z,10660.00
2022-07-30T06:23:54.830Z,10680.00
2022-07-30T06:24:54.794Z,11092.00
2022-07-30T06:25:54.772Z,11304.00
2022-07-30T06:26:54.769Z,11284.00
2022-07-30T06:27:54.773Z,11164.00
2022-07-30T06:28:54.746Z,11304.00
2022-07-30T06:29:54.792Z,10264.00
2022-07-30T06:30:54.763Z,9976.00
2022-07-30T06:31:54.713Z,10092.00
2022-07-30T06:32:54.715Z,10976.00
2022-07-30T06:33:54.685Z,11168.00
2022-07-30T06:35:02.498Z,11060.00
2022-07-30T06:35:54.664Z,11420.00
2022-07-30T06:36:54.655Z,12336.00
2022-07-30T06:38:05.784Z,12216.00
2022-07-30T06:38:54.630Z,12720.00
2022-07-30T06:39:58.081Z,11528.00
2022-07-30T06:40:57.142Z,10680.00
2022-07-30T06:41:54.628Z,10724.00
2022-07-30T06:42:54.620Z,11744.00
2022-07-30T06:43:54.598Z,11532.00
2022-07-30T06:44:54.565Z,11132.00
2022-07-30T06:45:54.606Z,11372.00
2022-07-30T06:46:54.551Z,10652.00
2022-07-30T06:47:54.546Z,9480.00
2022-07-30T06:48:54.594Z,9084.00
2022-07-30T06:51:03.790Z,9688.00
2022-07-30T06:52:04.786Z,10948.00
2022-07-30T06:53:04.770Z,11716.00
2022-07-30T06:54:04.778Z,12040.00
2022-07-30T06:55:04.747Z,12764.00
2022-07-30T06:56:04.767Z,13468.00
2022-07-30T06:57:04.750Z,13356.00
2022-07-30T06:58:04.716Z,13276.00
2022-07-30T06:59:04.723Z,13144.00
2022-07-30T07:00:04.692Z,13196.00
2022-07-30T07:01:04.707Z,13348.00
2022-07-30T07:02:04.668Z,13444.00
2022-07-30T07:03:07.477Z,13744.00
2022-07-30T07:04:04.706Z,13864.00
2022-07-30T07:05:04.632Z,13880.00
2022-07-30T07:06:04.631Z,13636.00
2022-07-30T07:07:12.654Z,13552.00
2022-07-30T07:08:04.606Z,13336.00
2022-07-30T07:09:04.601Z,11908.00
2022-07-30T07:10:04.584Z,12672.00
2022-07-30T07:11:04.578Z,11804.00
2022-07-30T07:12:04.562Z,14132.00
2022-07-30T07:13:04.543Z,13064.00
2022-07-30T07:14:05.081Z,12616.00
2022-07-30T07:15:04.524Z,14560.00
2022-07-30T07:16:04.534Z,15068.00
2022-07-30T07:17:05.032Z,15236.00
2022-07-30T07:18:04.500Z,14976.00
2022-07-30T07:19:04.496Z,14732.00
2022-07-30T07:20:04.486Z,14708.00
2022-07-30T07:21:04.504Z,15424.00
2022-07-30T07:22:04.458Z,15748.00
2022-07-30T07:23:09.494Z,15528.00
2022-07-30T07:24:04.424Z,14812.00
2022-07-30T07:25:04.427Z,13468.00
2022-07-30T07:26:04.410Z,13972.00
2022-07-30T07:27:04.422Z,15620.00
2022-07-30T07:28:11.680Z,15756.00
2022-07-30T07:29:05.344Z,15732.00
2022-07-30T07:30:05.976Z,15956.00
2022-07-30T07:31:04.400Z,15956.00
2022-07-30T07:32:06.306Z,16148.00
2022-07-30T07:33:04.339Z,16132.00
2022-07-30T07:34:04.321Z,15944.00
2022-07-30T07:35:04.341Z,15968.00
2022-07-30T07:36:04.290Z,15916.00
2022-07-30T07:37:04.382Z,16072.00
2022-07-30T07:38:04.273Z,15964.00
2022-07-30T07:39:04.266Z,16064.00
2022-07-30T07:40:04.276Z,16200.00
2022-07-30T07:41:04.236Z,16672.00
2022-07-30T07:42:04.294Z,16960.00
2022-07-30T07:43:04.235Z,16704.00
2022-07-30T07:44:04.214Z,15188.00
2022-07-30T07:45:04.198Z,16040.00
2022-07-30T07:46:04.274Z,17280.00
2022-07-30T07:47:04.182Z,17376.00
2022-07-30T07:48:04.165Z,17664.00
2022-07-30T07:49:04.236Z,17856.00
2022-07-30T07:50:04.146Z,18080.00
2022-07-30T07:51:04.138Z,17824.00
2022-07-30T07:52:04.111Z,16652.00
2022-07-30T07:53:04.112Z,16656.00
2022-07-30T07:54:20.344Z,17824.00
2022-07-30T07:55:04.093Z,17600.00
2022-07-30T07:56:04.079Z,17792.00
2022-07-30T07:57:04.515Z,18208.00
2022-07-30T07:58:04.195Z,18208.00
2022-07-30T07:59:04.051Z,18176.00
2022-07-30T08:00:04.028Z,17664.00
2022-07-30T08:01:04.117Z,17728.00
2022-07-30T08:02:04.199Z,17216.00
2022-07-30T08:03:04.998Z,16228.00
2022-07-30T08:04:04.021Z,17312.00
2022-07-30T08:05:03.974Z,17600.00
2022-07-30T08:06:06.295Z,18240.00
2022-07-30T08:07:04.736Z,18176.00
2022-07-30T08:08:03.935Z,17888.00
2022-07-30T08:09:03.926Z,17920.00
2022-07-30T08:10:03.917Z,17856.00
2022-07-30T08:11:03.913Z,18016.00
2022-07-30T08:12:03.906Z,18176.00
2022-07-30T08:13:03.910Z,18048.00
2022-07-30T08:14:03.879Z,18464.00
2022-07-30T08:15:03.863Z,18496.00
2022-07-30T08:16:03.851Z,18592.00
2022-07-30T08:17:04.148Z,18592.00
2022-07-30T08:18:03.842Z,18784.00
2022-07-30T08:19:03.817Z,18784.00
2022-07-30T08:20:03.802Z,19104.00
2022-07-30T08:21:03.789Z,18880.00
2022-07-30T08:22:03.778Z,18848.00
2022-07-30T08:23:03.786Z,18912.00
2022-07-30T08:24:03.759Z,19136.00
2022-07-30T08:25:04.000Z,18976.00
2022-07-30T08:26:03.752Z,19168.00
2022-07-30T08:27:04.171Z,19136.00
2022-07-30T08:28:03.728Z,19328.00
2022-07-30T08:29:03.705Z,19648.00
2022-07-30T08:30:03.704Z,19680.00
2022-07-30T08:31:03.707Z,19648.00
2022-07-30T08:32:04.256Z,19872.00
2022-07-30T08:33:03.677Z,19936.00
2022-07-30T08:34:03.695Z,19936.00
2022-07-30T08:35:03.653Z,20000.00
2022-07-30T08:36:09.198Z,19904.00
2022-07-30T08:37:03.628Z,19808.00
2022-07-30T08:38:03.622Z,19840.00
2022-07-30T08:39:03.594Z,19904.00
2022-07-30T08:40:03.587Z,19456.00
2022-07-30T08:41:03.586Z,19872.00
2022-07-30T08:42:03.889Z,19744.00
2022-07-30T08:43:03.570Z,19744.00
2022-07-30T08:44:03.545Z,19808.00
2022-07-30T08:45:03.543Z,19936.00
2022-07-30T08:46:03.559Z,19744.00
2022-07-30T08:47:04.019Z,19616.00
2022-07-30T08:48:03.539Z,19392.00
2022-07-30T08:49:09.055Z,19616.00
2022-07-30T08:50:03.509Z,19552.00
2022-07-30T08:52:12.432Z,19904.00
2022-07-30T08:53:13.432Z,20064.00
2022-07-30T08:54:13.395Z,20256.00
2022-07-30T08:55:13.384Z,20320.00
2022-07-30T08:56:13.379Z,20512.00
2022-07-30T08:57:13.360Z,20384.00
2022-07-30T08:58:13.359Z,20416.00
2022-07-30T08:59:13.364Z,20224.00
2022-07-30T09:00:13.332Z,20416.00
2022-07-30T09:01:13.330Z,19968.00
2022-07-30T09:02:13.792Z,20160.00
2022-07-30T09:03:13.309Z,20160.00
2022-07-30T09:04:13.325Z,20192.00
2022-07-30T09:05:13.306Z,20416.00
2022-07-30T09:06:13.271Z,20832.00
2022-07-30T09:07:13.263Z,20672.00
2022-07-30T09:08:13.238Z,20608.00
2022-07-30T09:09:13.250Z,20480.00
2022-07-30T09:10:13.233Z,20320.00
2022-07-30T09:11:13.222Z,20896.00
2022-07-30T09:12:13.206Z,21088.00
2022-07-30T09:13:13.185Z,21056.00
2022-07-30T09:14:13.211Z,20928.00
2022-07-30T09:15:13.171Z,20608.00
2022-07-30T09:16:13.207Z,20576.00
2022-07-30T09:17:13.141Z,20608.00
2022-07-30T09:18:13.146Z,17460.00
2022-07-30T09:19:13.142Z,20736.00
2022-07-30T09:20:13.119Z,21376.00
2022-07-30T09:21:13.105Z,22144.00
2022-07-30T09:22:13.090Z,21824.00
2022-07-30T09:23:13.081Z,21760.00
2022-07-30T09:24:13.100Z,21760.00
2022-07-30T09:25:13.067Z,21088.00
2022-07-30T09:26:13.055Z,21728.00
2022-07-30T09:27:13.037Z,21888.00
2022-07-30T09:28:16.106Z,21664.00
2022-07-30T09:29:13.018Z,21920.00
2022-07-30T09:30:13.021Z,22368.00
2022-07-30T09:31:12.994Z,22528.00
2022-07-30T09:32:12.979Z,22432.00
2022-07-30T09:33:12.975Z,22528.00
2022-07-30T09:34:12.966Z,22656.00
2022-07-30T09:35:12.964Z,22720.00
2022-07-30T09:36:12.953Z,22720.00
2022-07-30T09:37:12.997Z,22688.00
2022-07-30T09:38:12.914Z,22144.00
2022-07-30T09:39:12.903Z,22752.00
2022-07-30T09:40:12.910Z,22368.00
2022-07-30T09:41:29.308Z,20576.00
2022-07-30T09:42:12.897Z,21984.00
2022-07-30T09:43:12.866Z,14892.00
2022-07-30T09:44:12.855Z,16304.00
2022-07-30T09:45:12.864Z,22016.00
2022-07-30T09:46:12.838Z,14040.00
2022-07-30T09:47:12.855Z,15392.00
2022-07-30T09:48:12.813Z,22656.00
2022-07-30T09:49:12.872Z,22432.00
2022-07-30T09:50:12.804Z,22784.00
2022-07-30T09:51:15.895Z,22784.00
2022-07-30T09:52:12.769Z,22816.00
2022-07-30T09:53:12.757Z,22880.00
2022-07-30T09:54:12.754Z,23104.00
2022-07-30T09:55:12.739Z,22816.00
2022-07-30T09:56:12.741Z,22464.00
2022-07-30T09:59:18.593Z,22016.00
2022-07-30T10:00:12.696Z,21984.00
2022-07-30T10:01:12.679Z,21984.00
2022-07-30T10:02:12.673Z,21952.00
2022-07-30T10:03:21.727Z,22176.00
2022-07-30T10:04:12.639Z,22080.00
2022-07-30T10:05:14.586Z,21792.00
2022-07-30T10:06:12.612Z,21824.00
2022-07-30T10:07:12.616Z,21760.00
2022-07-30T10:08:16.456Z,21536.00
2022-07-30T10:09:14.423Z,21408.00
2022-07-30T10:10:12.592Z,21568.00
2022-07-30T10:11:12.584Z,21472.00
2022-07-30T10:12:12.558Z,21472.00
2022-07-30T10:13:13.664Z,21312.00
2022-07-30T10:14:12.545Z,21504.00
2022-07-30T10:15:13.464Z,21664.00
2022-07-30T10:16:12.513Z,21728.00
2022-07-30T10:17:12.858Z,21440.00
2022-07-30T10:18:12.507Z,21312.00
2022-07-30T10:19:15.962Z,22048.00
2022-07-30T10:20:12.504Z,22080.00
2022-07-30T10:21:12.451Z,22400.00
2022-07-30T10:22:12.456Z,22784.00
2022-07-30T10:23:15.671Z,22976.00
2022-07-30T10:24:12.424Z,23136.00
2022-07-30T10:25:16.235Z,23296.00
2022-07-30T10:26:12.393Z,23264.00
2022-07-30T10:27:12.378Z,23136.00
2022-07-30T10:28:12.373Z,23200.00
2022-07-30T10:29:12.997Z,23200.00
2022-07-30T10:30:13.823Z,23072.00
2022-07-30T10:31:48.412Z,23168.00
2022-07-30T10:32:12.329Z,22976.00
2022-07-30T10:33:35.021Z,22848.00
2022-07-30T10:34:12.309Z,22880.00
2022-07-30T10:35:12.314Z,22816.00
2022-07-30T10:36:12.296Z,22656.00
2022-07-30T10:37:12.323Z,22816.00
2022-07-30T10:38:13.974Z,22944.00
2022-07-30T10:39:12.257Z,22784.00
2022-07-30T10:40:12.243Z,23136.00
2022-07-30T10:41:12.249Z,22464.00
2022-07-30T10:42:12.230Z,23296.00
2022-07-30T10:43:12.205Z,23424.00
2022-07-30T10:44:12.198Z,23264.00
2022-07-30T10:45:17.506Z,23296.00
2022-07-30T10:46:21.931Z,23424.00
2022-07-30T10:47:12.159Z,22816.00
2022-07-30T10:48:12.152Z,20256.00
2022-07-30T10:49:18.455Z,13944.00
2022-07-30T10:50:12.134Z,13356.00
2022-07-30T10:51:12.138Z,13520.00
2022-07-30T10:53:23.641Z,16176.00
2022-07-30T10:54:22.085Z,22240.00
2022-07-30T10:55:36.882Z,22688.00
2022-07-30T10:56:25.465Z,22944.00
2022-07-30T10:57:23.156Z,22528.00
2022-07-30T10:58:22.972Z,22336.00
2022-07-30T10:59:25.945Z,21472.00
2022-07-30T11:00:22.016Z,21056.00
2022-07-30T11:01:22.019Z,20896.00
2022-07-30T11:02:21.993Z,18016.00
2022-07-30T11:03:22.209Z,13620.00
2022-07-30T11:04:21.966Z,13088.00
2022-07-30T11:05:43.813Z,12712.00
2022-07-30T11:06:24.367Z,12440.00
2022-07-30T11:07:21.952Z,20352.00
2022-07-30T11:08:21.918Z,20768.00
2022-07-30T11:09:21.909Z,20992.00
2022-07-30T11:10:21.904Z,21376.00
2022-07-30T11:12:01.537Z,21760.00
2022-07-30T11:12:22.267Z,21728.00
2022-07-30T11:13:24.995Z,21344.00
2022-07-30T11:14:21.858Z,21280.00
2022-07-30T11:15:21.847Z,21248.00
2022-07-30T11:16:21.850Z,20928.00
2022-07-30T11:17:21.844Z,20864.00
2022-07-30T11:18:21.825Z,21056.00
2022-07-30T11:19:53.223Z,21088.00
2022-07-30T11:20:21.797Z,21376.00
2022-07-30T11:21:22.696Z,21536.00
2022-07-30T11:22:21.784Z,13016.00
2022-07-30T11:23:21.767Z,12288.00
2022-07-30T11:24:22.277Z,11904.00
2022-07-30T11:25:21.737Z,11632.00
2022-07-30T11:26:21.735Z,11544.00
2022-07-30T11:27:21.728Z,11440.00
2022-07-30T11:28:21.724Z,18592.00
2022-07-30T11:29:33.142Z,20128.00
2022-07-30T11:30:23.630Z,20224.00
2022-07-30T11:31:21.677Z,16896.00
2022-07-30T11:32:21.675Z,21344.00
2022-07-30T11:33:21.666Z,21376.00
2022-07-30T11:34:24.047Z,21440.00
2022-07-30T11:35:23.328Z,18368.00
2022-07-30T11:36:21.623Z,13096.00
2022-07-30T11:37:32.373Z,12852.00
2022-07-30T11:38:22.457Z,12732.00
2022-07-30T11:39:21.602Z,13100.00
2022-07-30T11:40:26.265Z,12772.00
2022-07-30T11:41:21.567Z,12224.00
2022-07-30T11:42:21.560Z,12408.00
2022-07-30T11:43:35.022Z,12656.00
2022-07-30T11:44:21.551Z,21024.00
2022-07-30T11:45:21.525Z,21088.00
2022-07-30T11:46:28.551Z,20928.00
2022-07-30T11:47:21.521Z,14452.00
2022-07-30T11:48:21.501Z,12016.00
2022-07-30T11:49:21.578Z,11844.00
2022-07-30T11:50:21.473Z,19136.00
2022-07-30T11:51:21.470Z,15216.00
2022-07-30T11:52:21.453Z,12528.00
2022-07-30T11:53:21.449Z,20032.00
2022-07-30T11:54:21.445Z,21024.00
2022-07-30T11:55:21.419Z,13176.00
2022-07-30T11:56:21.413Z,12736.00
2022-07-30T11:57:21.401Z,12536.00
2022-07-30T11:58:21.386Z,12444.00
2022-07-30T11:59:21.390Z,14400.00
2022-07-30T12:00:22.057Z,12336.00
2022-07-30T12:01:21.357Z,11980.00
2022-07-30T12:02:21.361Z,12132.00
2022-07-30T12:03:21.348Z,12996.00
2022-07-30T12:04:21.345Z,16672.00
2022-07-30T12:05:21.333Z,20000.00
2022-07-30T12:06:21.307Z,19648.00
2022-07-30T12:07:21.292Z,17056.00
2022-07-30T12:08:35.581Z,17888.00
2022-07-30T12:09:21.283Z,20256.00
2022-07-30T12:10:26.818Z,19200.00
2022-07-30T12:11:21.248Z,20960.00
2022-07-30T12:12:21.253Z,20032.00
2022-07-30T12:13:21.230Z,20384.00
2022-07-30T12:14:21.239Z,20000.00
2022-07-30T12:15:21.237Z,19360.00
2022-07-30T12:16:21.229Z,19808.00
2022-07-30T12:17:21.464Z,19616.00
2022-07-30T12:18:28.453Z,19424.00
2022-07-30T12:19:21.158Z,17600.00
2022-07-30T12:20:21.160Z,19840.00
2022-07-30T12:21:21.172Z,19872.00
2022-07-30T12:22:21.161Z,18080.00
2022-07-30T12:23:21.845Z,12608.00
2022-07-30T12:24:21.112Z,20064.00
2022-07-30T12:25:21.139Z,20384.00